sensor_id;sensor_type;location;lat;lon;timestamp;P1;durP1;ratioP1;P2;durP2;ratioP2
45136;SDS011;30894;51.740;19.498;2022-10-31T00:01:09;53.25;;;16.35;;
45136;SDS011;30894;51.740;19.498;2022-10-31T00:03:44;50.25;;;15.05;;
45136;SDS011;30894;51.740;19.498;2022-10-31T00:06:10;44.25;;;15.05;;
45136;SDS011;30894;51.740;19.498;2022-10-31T00:08:37;48.72;;;15.68;;
45136;SDS011;30894;51.740;19.498;2022-10-31T00:11:09;42.58;;;14.05;;
45136;SDS011;30894;51.740;19.498;2022-10-31T00:13:36;46.58;;;14.40;;
45136;SDS011;30894;51.740;19.498;2022-10-31T00:16:02;54.20;;;16.25;;
45136;SDS011;30894;51.740;19.498;2022-10-31T00:18:29;55.22;;;14.73;;
45136;SDS011;30894;51.740;19.498;2022-10-31T00:20:59;47.30;;;13.38;;
45136;SDS011;30894;51.740;19.498;2022-10-31T00:26:02;33.45;;;12.35;;
45136;SDS011;30894;51.740;19.498;2022-10-31T00:28:29;42.40;;;13.82;;
45136;SDS011;30894;51.740;19.498;2022-10-31T00:31:02;36.30;;;14.32;;
45136;SDS011;30894;51.740;19.498;2022-10-31T00:33:35;43.60;;;13.85;;
45136;SDS011;30894;51.740;19.498;2022-10-31T00:36:05;51.97;;;15.23;;
45136;SDS011;30894;51.740;19.498;2022-10-31T00:38:33;46.78;;;15.00;;
45136;SDS011;30894;51.740;19.498;2022-10-31T00:40:59;44.15;;;14.45;;
45136;SDS011;30894;51.740;19.498;2022-10-31T00:43:26;50.38;;;15.20;;
45136;SDS011;30894;51.740;19.498;2022-10-31T00:45:52;39.88;;;14.18;;
45136;SDS011;30894;51.740;19.498;2022-10-31T00:48:18;39.97;;;14.93;;
45136;SDS011;30894;51.740;19.498;2022-10-31T00:50:44;40.28;;;14.68;;
45136;SDS011;30894;51.740;19.498;2022-10-31T00:53:11;47.00;;;15.77;;
45136;SDS011;30894;51.740;19.498;2022-10-31T00:55:37;57.35;;;16.88;;
45136;SDS011;30894;51.740;19.498;2022-10-31T00:58:03;40.03;;;13.90;;
45136;SDS011;30894;51.740;19.498;2022-10-31T01:04:29;61.20;;;16.80;;
45136;SDS011;30894;51.740;19.498;2022-10-31T01:07:04;69.32;;;16.15;;
45136;SDS011;30894;51.740;19.498;2022-10-31T01:09:30;43.35;;;15.65;;
45136;SDS011;30894;51.740;19.498;2022-10-31T01:11:56;52.47;;;16.58;;
45136;SDS011;30894;51.740;19.498;2022-10-31T01:14:22;57.20;;;16.10;;
45136;SDS011;30894;51.740;19.498;2022-10-31T01:16:48;38.92;;;14.38;;
45136;SDS011;30894;51.740;19.498;2022-10-31T01:19:15;34.75;;;13.55;;
45136;SDS011;30894;51.740;19.498;2022-10-31T01:21:41;39.05;;;12.68;;
45136;SDS011;30894;51.740;19.498;2022-10-31T01:24:07;36.25;;;14.02;;
45136;SDS011;30894;51.740;19.498;2022-10-31T01:26:34;41.63;;;12.45;;
45136;SDS011;30894;51.740;19.498;2022-10-31T01:29:03;42.42;;;14.95;;
45136;SDS011;30894;51.740;19.498;2022-10-31T01:31:34;37.17;;;13.02;;
45136;SDS011;30894;51.740;19.498;2022-10-31T01:34:02;30.52;;;11.82;;
45136;SDS011;30894;51.740;19.498;2022-10-31T01:36:33;28.95;;;10.65;;
45136;SDS011;30894;51.740;19.498;2022-10-31T01:39:07;29.55;;;11.65;;
45136;SDS011;30894;51.740;19.498;2022-10-31T01:41:40;27.40;;;9.73;;
45136;SDS011;30894;51.740;19.498;2022-10-31T01:49:11;28.60;;;10.18;;
45136;SDS011;30894;51.740;19.498;2022-10-31T01:52:03;25.10;;;10.48;;
45136;SDS011;30894;51.740;19.498;2022-10-31T01:54:40;21.25;;;9.65;;
45136;SDS011;30894;51.740;19.498;2022-10-31T01:57:14;28.48;;;10.65;;
45136;SDS011;30894;51.740;19.498;2022-10-31T01:59:45;27.50;;;11.35;;
45136;SDS011;30894;51.740;19.498;2022-10-31T02:02:16;34.90;;;12.23;;
45136;SDS011;30894;51.740;19.498;2022-10-31T02:04:44;43.17;;;12.45;;
45136;SDS011;30894;51.740;19.498;2022-10-31T02:07:14;28.73;;;10.93;;
45136;SDS011;30894;51.740;19.498;2022-10-31T02:09:55;32.80;;;11.45;;
45136;SDS011;30894;51.740;19.498;2022-10-31T02:12:23;28.02;;;9.88;;
45136;SDS011;30894;51.740;19.498;2022-10-31T02:14:50;31.70;;;10.88;;
45136;SDS011;30894;51.740;19.498;2022-10-31T02:17:17;36.10;;;12.30;;
45136;SDS011;30894;51.740;19.498;2022-10-31T02:20:00;23.20;;;9.88;;
45136;SDS011;30894;51.740;19.498;2022-10-31T02:28:58;28.90;;;10.45;;
45136;SDS011;30894;51.740;19.498;2022-10-31T02:34:16;25.13;;;10.25;;
45136;SDS011;30894;51.740;19.498;2022-10-31T02:42:27;22.75;;;10.55;;
45136;SDS011;30894;51.740;19.498;2022-10-31T02:45:07;23.00;;;9.93;;
45136;SDS011;30894;51.740;19.498;2022-10-31T02:47:48;24.48;;;10.60;;
45136;SDS011;30894;51.740;19.498;2022-10-31T02:50:21;27.67;;;11.20;;
45136;SDS011;30894;51.740;19.498;2022-10-31T02:52:53;33.33;;;10.43;;
45136;SDS011;30894;51.740;19.498;2022-10-31T03:00:23;28.23;;;10.68;;
45136;SDS011;30894;51.740;19.498;2022-10-31T03:03:01;25.10;;;10.75;;
45136;SDS011;30894;51.740;19.498;2022-10-31T03:05:41;20.58;;;8.60;;
45136;SDS011;30894;51.740;19.498;2022-10-31T03:08:42;24.80;;;10.32;;
45136;SDS011;30894;51.740;19.498;2022-10-31T03:11:20;22.77;;;9.95;;
45136;SDS011;30894;51.740;19.498;2022-10-31T03:16:25;20.25;;;9.75;;
45136;SDS011;30894;51.740;19.498;2022-10-31T03:19:29;28.55;;;8.90;;
45136;SDS011;30894;51.740;19.498;2022-10-31T03:22:17;20.55;;;8.55;;
45136;SDS011;30894;51.740;19.498;2022-10-31T03:24:48;21.85;;;9.27;;
45136;SDS011;30894;51.740;19.498;2022-10-31T03:27:16;29.55;;;9.82;;
45136;SDS011;30894;51.740;19.498;2022-10-31T03:29:48;20.80;;;8.50;;
45136;SDS011;30894;51.740;19.498;2022-10-31T03:32:26;18.50;;;7.75;;
45136;SDS011;30894;51.740;19.498;2022-10-31T03:34:59;18.90;;;8.10;;
45136;SDS011;30894;51.740;19.498;2022-10-31T03:37:29;20.10;;;9.00;;
45136;SDS011;30894;51.740;19.498;2022-10-31T03:40:00;26.20;;;9.20;;
45136;SDS011;30894;51.740;19.498;2022-10-31T03:42:30;25.58;;;8.70;;
45136;SDS011;30894;51.740;19.498;2022-10-31T03:45:05;28.08;;;8.82;;
45136;SDS011;30894;51.740;19.498;2022-10-31T03:47:47;32.08;;;9.85;;
45136;SDS011;30894;51.740;19.498;2022-10-31T03:50:14;26.25;;;11.10;;
45136;SDS011;30894;51.740;19.498;2022-10-31T03:52:42;35.33;;;10.48;;
45136;SDS011;30894;51.740;19.498;2022-10-31T03:58:34;37.78;;;14.00;;
45136;SDS011;30894;51.740;19.498;2022-10-31T04:01:09;47.20;;;13.05;;
45136;SDS011;30894;51.740;19.498;2022-10-31T04:03:37;48.25;;;13.23;;
45136;SDS011;30894;51.740;19.498;2022-10-31T04:06:05;42.90;;;13.02;;
45136;SDS011;30894;51.740;19.498;2022-10-31T04:08:40;37.58;;;11.80;;
45136;SDS011;30894;51.740;19.498;2022-10-31T04:11:12;42.13;;;11.93;;
45136;SDS011;30894;51.740;19.498;2022-10-31T04:13:41;36.80;;;12.63;;
45136;SDS011;30894;51.740;19.498;2022-10-31T04:16:11;43.20;;;12.93;;
45136;SDS011;30894;51.740;19.498;2022-10-31T04:18:39;38.28;;;12.73;;
45136;SDS011;30894;51.740;19.498;2022-10-31T04:21:07;45.83;;;12.63;;
45136;SDS011;30894;51.740;19.498;2022-10-31T04:23:34;34.33;;;11.40;;
45136;SDS011;30894;51.740;19.498;2022-10-31T04:26:01;35.70;;;10.90;;
45136;SDS011;30894;51.740;19.498;2022-10-31T04:28:29;34.97;;;11.15;;
45136;SDS011;30894;51.740;19.498;2022-10-31T04:30:59;36.55;;;11.32;;
45136;SDS011;30894;51.740;19.498;2022-10-31T04:33:26;30.27;;;10.98;;
45136;SDS011;30894;51.740;19.498;2022-10-31T04:35:55;30.42;;;11.27;;
45136;SDS011;30894;51.740;19.498;2022-10-31T04:38:22;35.38;;;12.00;;
45136;SDS011;30894;51.740;19.498;2022-10-31T04:40:50;34.95;;;10.82;;
45136;SDS011;30894;51.740;19.498;2022-10-31T04:43:24;32.97;;;12.43;;
45136;SDS011;30894;51.740;19.498;2022-10-31T04:45:52;44.60;;;12.75;;
45136;SDS011;30894;51.740;19.498;2022-10-31T04:48:21;49.30;;;13.45;;
45136;SDS011;30894;51.740;19.498;2022-10-31T04:50:57;33.55;;;12.40;;
45136;SDS011;30894;51.740;19.498;2022-10-31T04:53:26;35.38;;;12.27;;
45136;SDS011;30894;51.740;19.498;2022-10-31T04:56:14;45.40;;;13.35;;
45136;SDS011;30894;51.740;19.498;2022-10-31T04:58:54;44.72;;;11.93;;
45136;SDS011;30894;51.740;19.498;2022-10-31T05:01:41;32.67;;;11.88;;
45136;SDS011;30894;51.740;19.498;2022-10-31T05:04:10;26.88;;;10.10;;
45136;SDS011;30894;51.740;19.498;2022-10-31T05:06:40;25.02;;;9.77;;
45136;SDS011;30894;51.740;19.498;2022-10-31T05:09:11;29.35;;;10.45;;
45136;SDS011;30894;51.740;19.498;2022-10-31T05:11:41;21.77;;;9.13;;
45136;SDS011;30894;51.740;19.498;2022-10-31T05:14:07;28.23;;;10.05;;
45136;SDS011;30894;51.740;19.498;2022-10-31T05:16:38;25.55;;;9.88;;
45136;SDS011;30894;51.740;19.498;2022-10-31T05:19:10;24.65;;;9.80;;
45136;SDS011;30894;51.740;19.498;2022-10-31T05:21:41;23.90;;;9.38;;
45136;SDS011;30894;51.740;19.498;2022-10-31T05:24:10;32.70;;;10.13;;
45136;SDS011;30894;51.740;19.498;2022-10-31T05:26:38;32.90;;;11.77;;
45136;SDS011;30894;51.740;19.498;2022-10-31T05:29:10;23.65;;;10.02;;
45136;SDS011;30894;51.740;19.498;2022-10-31T05:31:41;33.78;;;10.82;;
45136;SDS011;30894;51.740;19.498;2022-10-31T05:34:15;28.45;;;9.77;;
45136;SDS011;30894;51.740;19.498;2022-10-31T05:36:47;30.70;;;12.05;;
45136;SDS011;30894;51.740;19.498;2022-10-31T05:39:20;32.40;;;11.18;;
45136;SDS011;30894;51.740;19.498;2022-10-31T05:42:04;29.58;;;10.82;;
45136;SDS011;30894;51.740;19.498;2022-10-31T05:44:37;23.98;;;10.50;;
45136;SDS011;30894;51.740;19.498;2022-10-31T05:47:27;23.77;;;11.23;;
45136;SDS011;30894;51.740;19.498;2022-10-31T05:50:32;26.17;;;10.48;;
45136;SDS011;30894;51.740;19.498;2022-10-31T05:53:05;38.03;;;11.98;;
45136;SDS011;30894;51.740;19.498;2022-10-31T05:55:38;25.10;;;10.52;;
45136;SDS011;30894;51.740;19.498;2022-10-31T05:58:18;28.42;;;10.40;;
45136;SDS011;30894;51.740;19.498;2022-10-31T06:00:52;27.88;;;10.07;;
45136;SDS011;30894;51.740;19.498;2022-10-31T06:03:39;31.55;;;11.25;;
45136;SDS011;30894;51.740;19.498;2022-10-31T06:06:10;26.63;;;10.70;;
45136;SDS011;30894;51.740;19.498;2022-10-31T06:08:57;31.42;;;10.68;;
45136;SDS011;30894;51.740;19.498;2022-10-31T06:11:28;33.10;;;13.20;;
45136;SDS011;30894;51.740;19.498;2022-10-31T06:13:56;47.10;;;17.70;;
45136;SDS011;30894;51.740;19.498;2022-10-31T06:16:27;30.67;;;12.32;;
45136;SDS011;30894;51.740;19.498;2022-10-31T06:19:04;115.43;;;39.22;;
45136;SDS011;30894;51.740;19.498;2022-10-31T06:21:31;66.43;;;23.40;;
45136;SDS011;30894;51.740;19.498;2022-10-31T06:24:02;221.80;;;58.45;;
45136;SDS011;30894;51.740;19.498;2022-10-31T06:26:31;36.05;;;14.95;;
45136;SDS011;30894;51.740;19.498;2022-10-31T06:29:00;46.20;;;15.32;;
45136;SDS011;30894;51.740;19.498;2022-10-31T06:31:30;37.50;;;12.32;;
45136;SDS011;30894;51.740;19.498;2022-10-31T06:34:17;30.10;;;12.60;;
45136;SDS011;30894;51.740;19.498;2022-10-31T06:36:45;27.10;;;9.63;;
45136;SDS011;30894;51.740;19.498;2022-10-31T06:39:15;18.88;;;8.90;;
45136;SDS011;30894;51.740;19.498;2022-10-31T06:42:09;24.45;;;9.02;;
45136;SDS011;30894;51.740;19.498;2022-10-31T06:44:52;19.27;;;8.73;;
45136;SDS011;30894;51.740;19.498;2022-10-31T06:47:21;18.98;;;7.88;;
45136;SDS011;30894;51.740;19.498;2022-10-31T06:49:50;15.40;;;7.88;;
45136;SDS011;30894;51.740;19.498;2022-10-31T06:52:22;17.48;;;7.43;;
45136;SDS011;30894;51.740;19.498;2022-10-31T06:54:54;12.30;;;7.35;;
45136;SDS011;30894;51.740;19.498;2022-10-31T06:57:29;15.45;;;6.93;;
45136;SDS011;30894;51.740;19.498;2022-10-31T06:59:55;14.98;;;7.00;;
45136;SDS011;30894;51.740;19.498;2022-10-31T07:02:21;16.67;;;7.35;;
45136;SDS011;30894;51.740;19.498;2022-10-31T07:04:59;12.30;;;6.15;;
45136;SDS011;30894;51.740;19.498;2022-10-31T07:07:32;15.25;;;7.13;;
45136;SDS011;30894;51.740;19.498;2022-10-31T07:10:01;15.10;;;7.50;;
45136;SDS011;30894;51.740;19.498;2022-10-31T07:12:27;22.50;;;7.63;;
45136;SDS011;30894;51.740;19.498;2022-10-31T07:15:05;13.10;;;7.55;;
45136;SDS011;30894;51.740;19.498;2022-10-31T07:17:37;14.43;;;7.68;;
45136;SDS011;30894;51.740;19.498;2022-10-31T07:20:12;15.57;;;7.30;;
45136;SDS011;30894;51.740;19.498;2022-10-31T07:22:39;15.93;;;7.22;;
45136;SDS011;30894;51.740;19.498;2022-10-31T07:25:14;14.10;;;7.78;;
45136;SDS011;30894;51.740;19.498;2022-10-31T07:27:43;15.10;;;8.30;;
45136;SDS011;30894;51.740;19.498;2022-10-31T07:30:10;26.30;;;7.85;;
45136;SDS011;30894;51.740;19.498;2022-10-31T07:32:44;20.63;;;8.90;;
45136;SDS011;30894;51.740;19.498;2022-10-31T07:35:16;16.08;;;7.60;;
45136;SDS011;30894;51.740;19.498;2022-10-31T07:37:46;19.65;;;8.63;;
45136;SDS011;30894;51.740;19.498;2022-10-31T07:40:21;17.33;;;7.80;;
45136;SDS011;30894;51.740;19.498;2022-10-31T07:42:51;20.25;;;8.23;;
45136;SDS011;30894;51.740;19.498;2022-10-31T07:45:21;17.35;;;8.02;;
45136;SDS011;30894;51.740;19.498;2022-10-31T07:50:27;14.18;;;7.60;;
45136;SDS011;30894;51.740;19.498;2022-10-31T07:52:58;29.45;;;9.52;;
45136;SDS011;30894;51.740;19.498;2022-10-31T07:55:52;19.42;;;8.40;;
45136;SDS011;30894;51.740;19.498;2022-10-31T07:58:18;22.30;;;8.65;;
45136;SDS011;30894;51.740;19.498;2022-10-31T08:00:45;28.77;;;8.57;;
45136;SDS011;30894;51.740;19.498;2022-10-31T08:03:14;25.60;;;9.80;;
45136;SDS011;30894;51.740;19.498;2022-10-31T08:05:46;23.35;;;8.90;;
45136;SDS011;30894;51.740;19.498;2022-10-31T08:08:13;31.05;;;10.48;;
45136;SDS011;30894;51.740;19.498;2022-10-31T08:10:42;24.70;;;10.98;;
45136;SDS011;30894;51.740;19.498;2022-10-31T08:13:12;23.17;;;9.65;;
45136;SDS011;30894;51.740;19.498;2022-10-31T08:15:39;27.90;;;9.35;;
45136;SDS011;30894;51.740;19.498;2022-10-31T08:18:10;28.38;;;9.68;;
45136;SDS011;30894;51.740;19.498;2022-10-31T08:20:40;21.83;;;10.68;;
45136;SDS011;30894;51.740;19.498;2022-10-31T08:23:10;30.48;;;10.80;;
45136;SDS011;30894;51.740;19.498;2022-10-31T08:25:38;27.05;;;11.32;;
45136;SDS011;30894;51.740;19.498;2022-10-31T08:28:05;24.63;;;10.70;;
45136;SDS011;30894;51.740;19.498;2022-10-31T08:30:32;27.27;;;10.57;;
45136;SDS011;30894;51.740;19.498;2022-10-31T08:33:05;30.83;;;10.50;;
45136;SDS011;30894;51.740;19.498;2022-10-31T08:35:38;26.85;;;10.65;;
45136;SDS011;30894;51.740;19.498;2022-10-31T08:38:05;31.90;;;11.60;;
45136;SDS011;30894;51.740;19.498;2022-10-31T08:40:33;26.83;;;10.63;;
45136;SDS011;30894;51.740;19.498;2022-10-31T08:43:10;27.35;;;9.57;;
45136;SDS011;30894;51.740;19.498;2022-10-31T08:45:38;24.77;;;10.32;;
45136;SDS011;30894;51.740;19.498;2022-10-31T08:48:09;31.48;;;10.85;;
45136;SDS011;30894;51.740;19.498;2022-10-31T08:50:38;29.20;;;11.55;;
45136;SDS011;30894;51.740;19.498;2022-10-31T08:53:15;21.13;;;10.60;;
45136;SDS011;30894;51.740;19.498;2022-10-31T08:55:45;33.72;;;11.93;;
45136;SDS011;30894;51.740;19.498;2022-10-31T08:58:13;24.23;;;10.55;;
45136;SDS011;30894;51.740;19.498;2022-10-31T09:00:41;26.45;;;11.10;;
45136;SDS011;30894;51.740;19.498;2022-10-31T09:03:18;28.73;;;11.45;;
45136;SDS011;30894;51.740;19.498;2022-10-31T09:05:47;24.45;;;11.00;;
45136;SDS011;30894;51.740;19.498;2022-10-31T09:08:15;41.67;;;13.20;;
45136;SDS011;30894;51.740;19.498;2022-10-31T09:10:42;32.25;;;11.80;;
45136;SDS011;30894;51.740;19.498;2022-10-31T09:13:12;30.85;;;11.95;;
45136;SDS011;30894;51.740;19.498;2022-10-31T09:15:46;29.30;;;12.98;;
45136;SDS011;30894;51.740;19.498;2022-10-31T09:18:15;27.58;;;11.95;;
45136;SDS011;30894;51.740;19.498;2022-10-31T09:20:44;36.47;;;11.88;;
45136;SDS011;30894;51.740;19.498;2022-10-31T09:23:12;34.47;;;11.82;;
45136;SDS011;30894;51.740;19.498;2022-10-31T09:25:44;45.05;;;13.05;;
45136;SDS011;30894;51.740;19.498;2022-10-31T09:28:13;39.75;;;14.80;;
45136;SDS011;30894;51.740;19.498;2022-10-31T09:30:41;44.42;;;13.25;;
45136;SDS011;30894;51.740;19.498;2022-10-31T09:33:11;35.08;;;14.20;;
45136;SDS011;30894;51.740;19.498;2022-10-31T09:35:39;46.40;;;16.30;;
45136;SDS011;30894;51.740;19.498;2022-10-31T09:38:08;46.33;;;16.95;;
45136;SDS011;30894;51.740;19.498;2022-10-31T09:40:52;37.92;;;15.25;;
45136;SDS011;30894;51.740;19.498;2022-10-31T09:43:45;38.60;;;14.95;;
45136;SDS011;30894;51.740;19.498;2022-10-31T09:46:52;37.13;;;15.18;;
45136;SDS011;30894;51.740;19.498;2022-10-31T09:49:47;37.33;;;14.98;;
45136;SDS011;30894;51.740;19.498;2022-10-31T09:52:29;43.80;;;14.63;;
45136;SDS011;30894;51.740;19.498;2022-10-31T09:55:02;34.88;;;14.75;;
45136;SDS011;30894;51.740;19.498;2022-10-31T09:57:38;34.85;;;14.25;;
45136;SDS011;30894;51.740;19.498;2022-10-31T10:00:07;43.63;;;15.77;;
45136;SDS011;30894;51.740;19.498;2022-10-31T10:05:32;43.25;;;15.27;;
45136;SDS011;30894;51.740;19.498;2022-10-31T10:08:09;43.70;;;14.32;;
45136;SDS011;30894;51.740;19.498;2022-10-31T10:10:49;38.30;;;15.18;;
45136;SDS011;30894;51.740;19.498;2022-10-31T10:19:15;37.70;;;14.55;;
45136;SDS011;30894;51.740;19.498;2022-10-31T10:30:17;34.85;;;15.30;;
45136;SDS011;30894;51.740;19.498;2022-10-31T10:32:56;33.65;;;12.73;;
45136;SDS011;30894;51.740;19.498;2022-10-31T10:38:23;29.63;;;13.10;;
45136;SDS011;30894;51.740;19.498;2022-10-31T10:40:58;29.95;;;11.55;;
45136;SDS011;30894;51.740;19.498;2022-10-31T10:43:35;21.17;;;10.43;;
45136;SDS011;30894;51.740;19.498;2022-10-31T10:58:08;20.45;;;9.40;;
45136;SDS011;30894;51.740;19.498;2022-10-31T11:00:40;22.60;;;9.57;;
45136;SDS011;30894;51.740;19.498;2022-10-31T11:03:09;16.27;;;9.23;;
45136;SDS011;30894;51.740;19.498;2022-10-31T11:05:52;29.60;;;11.00;;
45136;SDS011;30894;51.740;19.498;2022-10-31T11:08:24;17.77;;;8.68;;
45136;SDS011;30894;51.740;19.498;2022-10-31T11:13:41;22.52;;;8.73;;
45136;SDS011;30894;51.740;19.498;2022-10-31T11:19:07;18.55;;;9.02;;
45136;SDS011;30894;51.740;19.498;2022-10-31T11:21:46;17.92;;;9.07;;
45136;SDS011;30894;51.740;19.498;2022-10-31T11:24:14;17.65;;;9.02;;
45136;SDS011;30894;51.740;19.498;2022-10-31T11:26:45;14.15;;;7.80;;
45136;SDS011;30894;51.740;19.498;2022-10-31T11:29:21;16.58;;;8.48;;
45136;SDS011;30894;51.740;19.498;2022-10-31T11:31:51;25.15;;;10.40;;
45136;SDS011;30894;51.740;19.498;2022-10-31T11:34:29;16.60;;;9.55;;
45136;SDS011;30894;51.740;19.498;2022-10-31T11:37:20;19.45;;;9.07;;
45136;SDS011;30894;51.740;19.498;2022-10-31T11:39:55;21.10;;;8.63;;
45136;SDS011;30894;51.740;19.498;2022-10-31T11:42:25;19.33;;;8.13;;
45136;SDS011;30894;51.740;19.498;2022-10-31T11:45:00;15.57;;;8.85;;
45136;SDS011;30894;51.740;19.498;2022-10-31T11:47:40;19.42;;;9.07;;
45136;SDS011;30894;51.740;19.498;2022-10-31T11:50:21;16.50;;;9.18;;
45136;SDS011;30894;51.740;19.498;2022-10-31T11:52:52;17.10;;;8.88;;
45136;SDS011;30894;51.740;19.498;2022-10-31T11:55:30;16.70;;;9.13;;
45136;SDS011;30894;51.740;19.498;2022-10-31T11:58:02;18.27;;;8.93;;
45136;SDS011;30894;51.740;19.498;2022-10-31T12:00:30;16.92;;;8.45;;
45136;SDS011;30894;51.740;19.498;2022-10-31T12:03:27;20.95;;;9.93;;
45136;SDS011;30894;51.740;19.498;2022-10-31T12:06:05;23.00;;;9.35;;
45136;SDS011;30894;51.740;19.498;2022-10-31T12:09:01;13.73;;;8.05;;
45136;SDS011;30894;51.740;19.498;2022-10-31T12:24:03;22.33;;;10.07;;
45136;SDS011;30894;51.740;19.498;2022-10-31T12:32:20;20.88;;;9.88;;
45136;SDS011;30894;51.740;19.498;2022-10-31T12:35:23;19.27;;;8.20;;
45136;SDS011;30894;51.740;19.498;2022-10-31T12:39:00;19.45;;;9.15;;
45136;SDS011;30894;51.740;19.498;2022-10-31T12:44:30;19.55;;;8.85;;
45136;SDS011;30894;51.740;19.498;2022-10-31T12:56:20;15.00;;;8.00;;
45136;SDS011;30894;51.740;19.498;2022-10-31T12:59:29;17.10;;;8.98;;
45136;SDS011;30894;51.740;19.498;2022-10-31T13:02:20;24.50;;;8.82;;
45136;SDS011;30894;51.740;19.498;2022-10-31T13:07:58;24.20;;;8.57;;
45136;SDS011;30894;51.740;19.498;2022-10-31T13:13:11;18.85;;;8.73;;
45136;SDS011;30894;51.740;19.498;2022-10-31T13:15:55;18.17;;;8.45;;
45136;SDS011;30894;51.740;19.498;2022-10-31T13:21:20;23.77;;;8.40;;
45136;SDS011;30894;51.740;19.498;2022-10-31T13:23:54;17.45;;;8.20;;
45136;SDS011;30894;51.740;19.498;2022-10-31T13:26:47;19.00;;;8.65;;
45136;SDS011;30894;51.740;19.498;2022-10-31T13:31:56;15.88;;;7.75;;
45136;SDS011;30894;51.740;19.498;2022-10-31T13:46:26;21.88;;;8.35;;
45136;SDS011;30894;51.740;19.498;2022-10-31T13:54:37;18.52;;;8.23;;
45136;SDS011;30894;51.740;19.498;2022-10-31T13:57:51;16.33;;;8.83;;
45136;SDS011;30894;51.740;19.498;2022-10-31T14:00:05;18.52;;;8.77;;
45136;SDS011;30894;51.740;19.498;2022-10-31T14:02:52;22.13;;;10.20;;
45136;SDS011;30894;51.740;19.498;2022-10-31T14:08:04;28.63;;;11.85;;
45136;SDS011;30894;51.740;19.498;2022-10-31T14:10:35;31.80;;;13.63;;
45136;SDS011;30894;51.740;19.498;2022-10-31T14:15:57;27.60;;;12.77;;
45136;SDS011;30894;51.740;19.498;2022-10-31T14:18:31;33.60;;;13.27;;
45136;SDS011;30894;51.740;19.498;2022-10-31T14:28:56;35.00;;;14.60;;
45136;SDS011;30894;51.740;19.498;2022-10-31T14:31:35;33.88;;;14.02;;
45136;SDS011;30894;51.740;19.498;2022-10-31T14:36:46;35.00;;;14.35;;
45136;SDS011;30894;51.740;19.498;2022-10-31T14:40:14;31.08;;;13.85;;
45136;SDS011;30894;51.740;19.498;2022-10-31T14:45:46;37.35;;;14.50;;
45136;SDS011;30894;51.740;19.498;2022-10-31T14:51:27;41.00;;;15.75;;
45136;SDS011;30894;51.740;19.498;2022-10-31T14:54:02;29.55;;;14.38;;
45136;SDS011;30894;51.740;19.498;2022-10-31T14:56:32;32.22;;;15.10;;
45136;SDS011;30894;51.740;19.498;2022-10-31T14:59:04;33.38;;;13.98;;
45136;SDS011;30894;51.740;19.498;2022-10-31T15:01:39;34.45;;;14.82;;
45136;SDS011;30894;51.740;19.498;2022-10-31T15:04:22;42.33;;;15.77;;
45136;SDS011;30894;51.740;19.498;2022-10-31T15:06:53;38.33;;;16.75;;
45136;SDS011;30894;51.740;19.498;2022-10-31T15:09:34;38.53;;;15.75;;
45136;SDS011;30894;51.740;19.498;2022-10-31T15:14:52;36.17;;;15.00;;
45136;SDS011;30894;51.740;19.498;2022-10-31T15:17:19;35.38;;;14.73;;
45136;SDS011;30894;51.740;19.498;2022-10-31T15:19:46;72.70;;;23.08;;
45136;SDS011;30894;51.740;19.498;2022-10-31T15:22:14;149.70;;;49.10;;
45136;SDS011;30894;51.740;19.498;2022-10-31T15:24:44;133.80;;;43.83;;
45136;SDS011;30894;51.740;19.498;2022-10-31T15:27:12;81.50;;;28.80;;
45136;SDS011;30894;51.740;19.498;2022-10-31T15:29:52;48.80;;;19.33;;
45136;SDS011;30894;51.740;19.498;2022-10-31T15:32:22;42.15;;;16.85;;
45136;SDS011;30894;51.740;19.498;2022-10-31T15:34:51;38.55;;;16.65;;
45136;SDS011;30894;51.740;19.498;2022-10-31T15:37:20;39.60;;;16.55;;
45136;SDS011;30894;51.740;19.498;2022-10-31T15:39:50;39.45;;;14.85;;
45136;SDS011;30894;51.740;19.498;2022-10-31T15:42:39;36.55;;;15.90;;
45136;SDS011;30894;51.740;19.498;2022-10-31T15:47:36;64.40;;;27.40;;
45136;SDS011;30894;51.740;19.498;2022-10-31T15:50:06;55.17;;;22.70;;
45136;SDS011;30894;51.740;19.498;2022-10-31T15:52:49;44.13;;;17.63;;
45136;SDS011;30894;51.740;19.498;2022-10-31T15:55:23;49.67;;;19.35;;
45136;SDS011;30894;51.740;19.498;2022-10-31T15:58:13;52.25;;;19.67;;
45136;SDS011;30894;51.740;19.498;2022-10-31T16:00:56;53.65;;;18.20;;
45136;SDS011;30894;51.740;19.498;2022-10-31T16:03:30;45.83;;;18.02;;
45136;SDS011;30894;51.740;19.498;2022-10-31T16:06:02;41.33;;;17.95;;
45136;SDS011;30894;51.740;19.498;2022-10-31T16:08:44;43.67;;;18.17;;
45136;SDS011;30894;51.740;19.498;2022-10-31T16:14:06;41.72;;;17.75;;
45136;SDS011;30894;51.740;19.498;2022-10-31T16:16:56;44.20;;;18.48;;
45136;SDS011;30894;51.740;19.498;2022-10-31T16:19:31;48.75;;;17.98;;
45136;SDS011;30894;51.740;19.498;2022-10-31T16:22:35;49.40;;;19.33;;
45136;SDS011;30894;51.740;19.498;2022-10-31T16:25:04;56.08;;;19.98;;
45136;SDS011;30894;51.740;19.498;2022-10-31T16:27:38;47.45;;;18.42;;
45136;SDS011;30894;51.740;19.498;2022-10-31T16:30:40;59.88;;;19.80;;
45136;SDS011;30894;51.740;19.498;2022-10-31T16:38:53;41.75;;;17.15;;
45136;SDS011;30894;51.740;19.498;2022-10-31T16:41:23;37.65;;;16.63;;
45136;SDS011;30894;51.740;19.498;2022-10-31T16:43:52;38.58;;;16.25;;
45136;SDS011;30894;51.740;19.498;2022-10-31T16:46:24;42.13;;;15.95;;
45136;SDS011;30894;51.740;19.498;2022-10-31T16:49:07;51.42;;;17.52;;
45136;SDS011;30894;51.740;19.498;2022-10-31T16:51:36;43.80;;;16.38;;
45136;SDS011;30894;51.740;19.498;2022-10-31T16:54:04;40.38;;;16.67;;
45136;SDS011;30894;51.740;19.498;2022-10-31T16:56:31;43.50;;;16.58;;
45136;SDS011;30894;51.740;19.498;2022-10-31T16:59:03;61.35;;;16.17;;
45136;SDS011;30894;51.740;19.498;2022-10-31T17:01:37;44.88;;;14.98;;
45136;SDS011;30894;51.740;19.498;2022-10-31T17:04:05;44.72;;;16.02;;
45136;SDS011;30894;51.740;19.498;2022-10-31T17:06:35;46.40;;;16.15;;
45136;SDS011;30894;51.740;19.498;2022-10-31T17:09:06;47.45;;;16.67;;
45136;SDS011;30894;51.740;19.498;2022-10-31T17:11:33;37.78;;;16.20;;
45136;SDS011;30894;51.740;19.498;2022-10-31T17:14:00;35.88;;;15.68;;
45136;SDS011;30894;51.740;19.498;2022-10-31T17:16:29;51.03;;;19.92;;
45136;SDS011;30894;51.740;19.498;2022-10-31T17:18:55;78.47;;;25.98;;
45136;SDS011;30894;51.740;19.498;2022-10-31T17:21:22;39.83;;;16.77;;
45136;SDS011;30894;51.740;19.498;2022-10-31T17:23:51;49.50;;;16.45;;
45136;SDS011;30894;51.740;19.498;2022-10-31T17:26:21;58.05;;;17.80;;
45136;SDS011;30894;51.740;19.498;2022-10-31T17:28:47;76.38;;;22.42;;
45136;SDS011;30894;51.740;19.498;2022-10-31T17:31:22;88.45;;;26.60;;
45136;SDS011;30894;51.740;19.498;2022-10-31T17:33:58;65.38;;;21.70;;
45136;SDS011;30894;51.740;19.498;2022-10-31T17:36:25;58.15;;;19.80;;
45136;SDS011;30894;51.740;19.498;2022-10-31T17:38:52;58.83;;;20.35;;
45136;SDS011;30894;51.740;19.498;2022-10-31T17:41:18;52.08;;;18.02;;
45136;SDS011;30894;51.740;19.498;2022-10-31T17:43:50;48.35;;;18.08;;